ADDS METAR Data INFO

IDs: Format: Raw Decoded Include TAF

Data at: 1642 UTC 25 Oct 2014

Region: TOP
KATL 251552Z 34005KT 10SM CLR 20/07 A3008 RMK AO2 SLP183 T02000067 $

KBOS 251554Z 27008KT 10SM FEW140 16/06 A2969 RMK AO2 SLP053 T01560056

KBWI 251554Z 28006KT 10SM FEW250 19/06 A2990 RMK AO2 SLP124 T01890056

KCLE 251551Z 24015KT 10SM BKN039 17/11 A2984 RMK AO2 SLP104 T01720111

KCLT 251552Z VRB03KT 10SM FEW250 19/02 A3005 RMK AO2 SLP171 T01940017

KCVG 251552Z 26007KT 7SM OVC021 17/12 A2999 RMK AO2 SLP152 OCNL BINOVC T01720117

KDCA 251552Z 17010KT 10SM FEW200 19/08 A2993 RMK AO2 SLP133 T01890078

KDEN 251553Z 22009KT 10SM CLR 18/M04 A3026 RMK AO2 SLP201 T01831044

KDFW 251553Z 20008KT 10SM CLR 24/16 A3014 RMK AO2 SLP200 T02440156

KDTW 251553Z 25016G24KT 6SM HZ OVC020 16/11 A2981 RMK AO2 SLP095 T01560111

KEWR 251551Z 25009KT 10SM FEW250 17/04 A2982 RMK AO2 SLP098 T01720044

KFLL 251553Z 34007KT 320V030 10SM CLR 28/16 A2992 RMK AO2 SLP132 T02780161

KIAD 251552Z 29010KT 10SM CLR 19/06 A2993 RMK AO2 SLP134 T01890056

KIAH 251553Z VRB03KT 10SM CLR 23/14 A3019 RMK AO2 SLP224 T02330139

KJFK 251551Z 26009KT 10SM FEW260 17/04 A2983 RMK AO2 SLP101 T01670044

KLAS 251556Z 19010KT 10SM FEW180 FEW250 23/04 A3002 RMK AO2 SLP148 T02280044

KLAX 251553Z 20003KT 10SM SCT100 BKN180 19/18 A3004 RMK AO2 SLP171 T01890176 $

KLGA 251551Z 26011KT 10SM FEW250 16/04 A2981 RMK AO2 SLP095 T01610044

KMCO 251553Z 31009KT 10SM CLR 24/13 A3000 RMK AO2 SLP158 T02440128 $

KMDW 251553Z 31011KT 10SM FEW100 FEW250 19/11 A2995 RMK AO2 SLP136 T01940106

KMEM 251554Z 25005KT 10SM CLR 23/16 A3011 RMK AO2 SLP192 T02280156 $

KMIA 251553Z 32007KT 10SM FEW035 27/13 A2993 RMK AO2 SLP136 T02720133

KMSP 251553Z 31011KT 10SM SCT120 13/00 A3005 RMK AO2 SLP178 T01330000

KORD 251551Z 31012KT 10SM FEW250 18/09 A2995 RMK AO2 SLP142 T01830089

KPDX 251553Z 12004KT 10SM FEW020 SCT050 SCT250 12/11 A2949 RMK AO2 PK WND 09026/1459 RAE15 SLP987 P0001 T01220106

KPHL 251554Z 27008G16KT 10SM FEW250 18/06 A2987 RMK AO2 SLP115 T01780056

KPHX 251551Z 09009KT 10SM BKN110 26/09 A3003 RMK AO2 SLP152 T02610094

KPIT 251551Z 23013G17KT 10SM FEW070 SCT095 SCT250 14/09 A2989 RMK AO2 SLP130 T01440089

KSAN 251635Z 31004KT 8SM BKN011 BKN100 22/18 A3008 RMK AO2 $

KSEA 251553Z 11015KT 6SM -RA BR SCT003 OVC070 10/09 A2956 RMK AO2 RAB04 PRESFR SLP014 P0003 T01000089

KSFO 251634Z 12007KT 10SM FEW012 BKN022 BKN035 19/15 A3002 RMK AO2 $

KSLC 251553Z 13008KT 10SM CLR 17/01 A3008 RMK AO2 SLP152 T01720006

KSTL 251551Z 29003KT 8SM CLR 22/17 A3005 RMK AO2 SLP168 T02220167

KTPA 251553Z 36007KT 10SM CLR 24/11 A3002 RMK AO2 SLP166 T02440106


Page loaded:  16:42 UTC  |   09:42 AM Pacific  |   10:42 AM Mountain  |   11:42 AM Central  |   12:42 PM Eastern

 

ADVISORIES

FORECASTS

FORECASTS

OBSERVATIONS

USER TOOLS

ABOUT US